NV27 weather

Public forecast

Using degrees Fahrenheit for public forecast. Weather courtesy of forecast.io.

Closest aviation weather report (METAR) to Circle L Ranch Airport

Closest report is Eastern Sierra Regional Airport, 24.6 nm (45.5 km) SSW. Retrieved 2020/08/10 07:56 UTC (42 minutes ago):

KBIH 100756Z AUTO 00000KT 10SM CLR 21/00 A3004 RMK AO2 SLP111 T02060000 403830122

Closest aviation forecast (TAF) to Circle L Ranch Airport

Closest forecast is Eastern Sierra Regional Airport, 24.6 nm (45.5 km) SSW. Retrieved 2020/08/10 06:22 UTC (2 hours ago):

TAF KBIH 100520Z 1006/1106 15009KT P6SM FEW140 FM100800 32006KT P6SM SKC FM102100 16011G17KT P6SM SKC FM110000 15009KT P6SM SKC FM110400 35008KT P6SM SKC